sensor_id;sensor_type;location;lat;lon;timestamp;temperature;humidity
38464;DHT22;24243;51.956;5.902;2022-08-21T00:00:54;25.40;48.90
38464;DHT22;24243;51.956;5.902;2022-08-21T00:03:19;25.40;48.90
38464;DHT22;24243;51.956;5.902;2022-08-21T00:05:48;25.40;49.00
38464;DHT22;24243;51.956;5.902;2022-08-21T00:08:15;25.40;49.00
38464;DHT22;24243;51.956;5.902;2022-08-21T00:10:41;25.40;49.00
38464;DHT22;24243;51.956;5.902;2022-08-21T00:13:07;25.40;49.00
38464;DHT22;24243;51.956;5.902;2022-08-21T00:15:34;25.40;49.00
38464;DHT22;24243;51.956;5.902;2022-08-21T00:18:00;25.40;49.00
38464;DHT22;24243;51.956;5.902;2022-08-21T00:20:26;25.40;49.00
38464;DHT22;24243;51.956;5.902;2022-08-21T00:22:52;25.40;49.00
38464;DHT22;24243;51.956;5.902;2022-08-21T00:25:18;25.40;49.00
38464;DHT22;24243;51.956;5.902;2022-08-21T00:27:44;25.40;49.00
38464;DHT22;24243;51.956;5.902;2022-08-21T00:30:13;25.40;49.00
38464;DHT22;24243;51.956;5.902;2022-08-21T00:32:39;25.40;49.00
38464;DHT22;24243;51.956;5.902;2022-08-21T00:35:10;25.40;49.00
38464;DHT22;24243;51.956;5.902;2022-08-21T00:37:37;25.40;49.00
38464;DHT22;24243;51.956;5.902;2022-08-21T00:40:03;25.40;49.10
38464;DHT22;24243;51.956;5.902;2022-08-21T00:42:28;25.40;49.10
38464;DHT22;24243;51.956;5.902;2022-08-21T00:44:54;25.40;49.10
38464;DHT22;24243;51.956;5.902;2022-08-21T00:47:20;25.40;49.10
38464;DHT22;24243;51.956;5.902;2022-08-21T00:49:46;25.30;49.00
38464;DHT22;24243;51.956;5.902;2022-08-21T00:52:15;25.30;49.00
38464;DHT22;24243;51.956;5.902;2022-08-21T00:54:42;25.40;49.10
38464;DHT22;24243;51.956;5.902;2022-08-21T00:57:16;25.40;49.10
38464;DHT22;24243;51.956;5.902;2022-08-21T00:59:44;25.40;49.10
38464;DHT22;24243;51.956;5.902;2022-08-21T01:02:10;25.30;49.70
38464;DHT22;24243;51.956;5.902;2022-08-21T01:04:36;25.30;49.10
38464;DHT22;24243;51.956;5.902;2022-08-21T01:07:02;25.30;49.10
38464;DHT22;24243;51.956;5.902;2022-08-21T01:09:28;25.30;49.10
38464;DHT22;24243;51.956;5.902;2022-08-21T01:11:53;25.30;49.10
38464;DHT22;24243;51.956;5.902;2022-08-21T01:14:19;25.30;49.10
38464;DHT22;24243;51.956;5.902;2022-08-21T01:16:46;25.30;49.10
38464;DHT22;24243;51.956;5.902;2022-08-21T01:19:12;25.30;49.10
38464;DHT22;24243;51.956;5.902;2022-08-21T01:21:39;25.30;49.10
38464;DHT22;24243;51.956;5.902;2022-08-21T01:24:05;25.30;49.10
38464;DHT22;24243;51.956;5.902;2022-08-21T01:26:31;25.30;49.10
38464;DHT22;24243;51.956;5.902;2022-08-21T01:31:42;25.20;49.10
38464;DHT22;24243;51.956;5.902;2022-08-21T01:34:07;25.20;49.10
38464;DHT22;24243;51.956;5.902;2022-08-21T01:36:34;25.20;49.10
38464;DHT22;24243;51.956;5.902;2022-08-21T01:38:59;25.20;49.10
38464;DHT22;24243;51.956;5.902;2022-08-21T01:41:25;25.20;49.10
38464;DHT22;24243;51.956;5.902;2022-08-21T01:43:50;25.20;49.10
38464;DHT22;24243;51.956;5.902;2022-08-21T01:46:16;25.20;49.10
38464;DHT22;24243;51.956;5.902;2022-08-21T01:48:42;25.20;49.10
38464;DHT22;24243;51.956;5.902;2022-08-21T01:51:08;25.20;49.10
38464;DHT22;24243;51.956;5.902;2022-08-21T01:53:34;25.20;49.10
38464;DHT22;24243;51.956;5.902;2022-08-21T01:56:06;25.20;49.10
38464;DHT22;24243;51.956;5.902;2022-08-21T01:58:32;25.20;49.20
38464;DHT22;24243;51.956;5.902;2022-08-21T02:00:59;25.20;49.10
38464;DHT22;24243;51.956;5.902;2022-08-21T02:03:26;25.20;49.20
38464;DHT22;24243;51.956;5.902;2022-08-21T02:05:51;25.20;49.10
38464;DHT22;24243;51.956;5.902;2022-08-21T02:08:17;25.20;49.10
38464;DHT22;24243;51.956;5.902;2022-08-21T02:10:42;25.20;49.20
38464;DHT22;24243;51.956;5.902;2022-08-21T02:13:09;25.20;49.20
38464;DHT22;24243;51.956;5.902;2022-08-21T02:15:34;25.10;49.10
38464;DHT22;24243;51.956;5.902;2022-08-21T02:18:02;25.20;49.20
38464;DHT22;24243;51.956;5.902;2022-08-21T02:20:29;25.20;49.20
38464;DHT22;24243;51.956;5.902;2022-08-21T02:22:55;25.10;49.10
38464;DHT22;24243;51.956;5.902;2022-08-21T02:25:21;25.10;49.10
38464;DHT22;24243;51.956;5.902;2022-08-21T02:27:49;25.10;49.10
38464;DHT22;24243;51.956;5.902;2022-08-21T02:30:16;25.10;49.10
38464;DHT22;24243;51.956;5.902;2022-08-21T02:32:42;25.10;49.20
38464;DHT22;24243;51.956;5.902;2022-08-21T02:35:08;25.10;49.20
38464;DHT22;24243;51.956;5.902;2022-08-21T02:40:17;25.10;49.20
38464;DHT22;24243;51.956;5.902;2022-08-21T02:42:43;25.10;49.20
38464;DHT22;24243;51.956;5.902;2022-08-21T02:45:10;25.10;49.20
38464;DHT22;24243;51.956;5.902;2022-08-21T02:47:36;25.10;49.20
38464;DHT22;24243;51.956;5.902;2022-08-21T02:50:02;25.00;49.20
38464;DHT22;24243;51.956;5.902;2022-08-21T02:52:28;25.00;49.20
38464;DHT22;24243;51.956;5.902;2022-08-21T02:54:54;25.00;49.20
38464;DHT22;24243;51.956;5.902;2022-08-21T02:57:20;25.00;49.20
38464;DHT22;24243;51.956;5.902;2022-08-21T02:59:45;25.00;49.20
38464;DHT22;24243;51.956;5.902;2022-08-21T03:02:12;25.00;49.20
38464;DHT22;24243;51.956;5.902;2022-08-21T03:04:37;25.00;49.20
38464;DHT22;24243;51.956;5.902;2022-08-21T03:07:03;25.00;49.20
38464;DHT22;24243;51.956;5.902;2022-08-21T03:09:29;25.00;49.20
38464;DHT22;24243;51.956;5.902;2022-08-21T03:11:54;25.00;49.20
38464;DHT22;24243;51.956;5.902;2022-08-21T03:14:20;25.00;49.20
38464;DHT22;24243;51.956;5.902;2022-08-21T03:16:45;25.00;49.20
38464;DHT22;24243;51.956;5.902;2022-08-21T03:19:11;25.00;49.20
38464;DHT22;24243;51.956;5.902;2022-08-21T03:21:36;25.00;49.20
38464;DHT22;24243;51.956;5.902;2022-08-21T03:24:02;25.00;49.20
38464;DHT22;24243;51.956;5.902;2022-08-21T03:26:28;25.00;49.20
38464;DHT22;24243;51.956;5.902;2022-08-21T03:28:53;25.00;49.20
38464;DHT22;24243;51.956;5.902;2022-08-21T03:31:19;25.00;49.30
38464;DHT22;24243;51.956;5.902;2022-08-21T03:33:46;25.00;49.20
38464;DHT22;24243;51.956;5.902;2022-08-21T03:36:12;25.00;49.30
38464;DHT22;24243;51.956;5.902;2022-08-21T03:38:38;24.90;49.20
38464;DHT22;24243;51.956;5.902;2022-08-21T03:41:04;24.90;49.20
38464;DHT22;24243;51.956;5.902;2022-08-21T03:43:30;24.90;49.20
38464;DHT22;24243;51.956;5.902;2022-08-21T03:45:55;24.90;49.20
38464;DHT22;24243;51.956;5.902;2022-08-21T03:48:21;24.90;49.20
38464;DHT22;24243;51.956;5.902;2022-08-21T03:50:47;24.90;49.30
38464;DHT22;24243;51.956;5.902;2022-08-21T03:53:15;24.90;49.20
38464;DHT22;24243;51.956;5.902;2022-08-21T03:55:40;24.90;49.20
38464;DHT22;24243;51.956;5.902;2022-08-21T03:58:06;24.90;49.20
38464;DHT22;24243;51.956;5.902;2022-08-21T04:00:32;24.90;49.30
38464;DHT22;24243;51.956;5.902;2022-08-21T04:02:58;24.90;49.30
38464;DHT22;24243;51.956;5.902;2022-08-21T04:05:23;24.90;49.30
38464;DHT22;24243;51.956;5.902;2022-08-21T04:07:56;24.90;49.30
38464;DHT22;24243;51.956;5.902;2022-08-21T04:10:22;24.90;49.30
38464;DHT22;24243;51.956;5.902;2022-08-21T04:12:49;24.80;49.30
38464;DHT22;24243;51.956;5.902;2022-08-21T04:15:15;24.90;49.30
38464;DHT22;24243;51.956;5.902;2022-08-21T04:17:40;24.80;49.20
38464;DHT22;24243;51.956;5.902;2022-08-21T04:20:06;24.80;49.30
38464;DHT22;24243;51.956;5.902;2022-08-21T04:22:31;24.80;49.20
38464;DHT22;24243;51.956;5.902;2022-08-21T04:24:57;24.80;49.20
38464;DHT22;24243;51.956;5.902;2022-08-21T04:27:23;24.80;49.30
38464;DHT22;24243;51.956;5.902;2022-08-21T04:29:48;24.80;49.30
38464;DHT22;24243;51.956;5.902;2022-08-21T04:32:20;24.80;49.20
38464;DHT22;24243;51.956;5.902;2022-08-21T04:34:46;24.80;49.20
38464;DHT22;24243;51.956;5.902;2022-08-21T04:37:12;24.80;49.20
38464;DHT22;24243;51.956;5.902;2022-08-21T04:39:37;24.80;49.20
38464;DHT22;24243;51.956;5.902;2022-08-21T04:42:03;24.70;49.20
38464;DHT22;24243;51.956;5.902;2022-08-21T04:44:30;24.70;49.20
38464;DHT22;24243;51.956;5.902;2022-08-21T04:46:56;24.70;49.20
38464;DHT22;24243;51.956;5.902;2022-08-21T04:49:21;24.80;49.20
38464;DHT22;24243;51.956;5.902;2022-08-21T04:51:47;24.70;49.20
38464;DHT22;24243;51.956;5.902;2022-08-21T04:54:20;24.70;49.20
38464;DHT22;24243;51.956;5.902;2022-08-21T04:56:48;24.70;49.20
38464;DHT22;24243;51.956;5.902;2022-08-21T04:59:19;24.70;49.20
38464;DHT22;24243;51.956;5.902;2022-08-21T05:01:46;24.70;49.20
38464;DHT22;24243;51.956;5.902;2022-08-21T05:04:12;24.70;49.20
38464;DHT22;24243;51.956;5.902;2022-08-21T05:06:39;24.70;49.20
38464;DHT22;24243;51.956;5.902;2022-08-21T05:09:07;24.70;49.20
38464;DHT22;24243;51.956;5.902;2022-08-21T05:11:34;24.70;49.20
38464;DHT22;24243;51.956;5.902;2022-08-21T05:14:00;24.70;49.20
38464;DHT22;24243;51.956;5.902;2022-08-21T05:16:26;24.70;49.20
38464;DHT22;24243;51.956;5.902;2022-08-21T05:18:51;24.70;49.20
38464;DHT22;24243;51.956;5.902;2022-08-21T05:21:17;24.70;49.20
38464;DHT22;24243;51.956;5.902;2022-08-21T05:23:43;24.70;49.20
38464;DHT22;24243;51.956;5.902;2022-08-21T05:26:08;24.70;49.20
38464;DHT22;24243;51.956;5.902;2022-08-21T05:28:34;24.80;49.30
38464;DHT22;24243;51.956;5.902;2022-08-21T05:30:59;24.70;49.20
38464;DHT22;24243;51.956;5.902;2022-08-21T05:33:25;24.70;49.20
38464;DHT22;24243;51.956;5.902;2022-08-21T05:35:51;24.80;49.30
38464;DHT22;24243;51.956;5.902;2022-08-21T05:38:17;24.80;49.30
38464;DHT22;24243;51.956;5.902;2022-08-21T05:40:43;24.80;49.20
38464;DHT22;24243;51.956;5.902;2022-08-21T05:43:09;24.90;49.20
38464;DHT22;24243;51.956;5.902;2022-08-21T05:45:34;24.90;49.10
38464;DHT22;24243;51.956;5.902;2022-08-21T05:48:10;25.00;49.00
38464;DHT22;24243;51.956;5.902;2022-08-21T05:50:36;25.10;49.00
38464;DHT22;24243;51.956;5.902;2022-08-21T05:53:03;25.20;48.90
38464;DHT22;24243;51.956;5.902;2022-08-21T05:55:29;25.20;48.70
38464;DHT22;24243;51.956;5.902;2022-08-21T05:57:54;25.40;48.80
38464;DHT22;24243;51.956;5.902;2022-08-21T06:00:20;25.50;48.50
38464;DHT22;24243;51.956;5.902;2022-08-21T06:02:48;25.60;48.40
38464;DHT22;24243;51.956;5.902;2022-08-21T06:05:15;25.80;48.30
38464;DHT22;24243;51.956;5.902;2022-08-21T06:07:40;25.90;48.10
38464;DHT22;24243;51.956;5.902;2022-08-21T06:10:06;26.10;48.00
38464;DHT22;24243;51.956;5.902;2022-08-21T06:12:32;26.30;47.80
38464;DHT22;24243;51.956;5.902;2022-08-21T06:14:58;26.50;47.70
38464;DHT22;24243;51.956;5.902;2022-08-21T06:17:23;26.60;47.40
38464;DHT22;24243;51.956;5.902;2022-08-21T06:19:52;26.90;47.20
38464;DHT22;24243;51.956;5.902;2022-08-21T06:22:18;27.10;47.00
38464;DHT22;24243;51.956;5.902;2022-08-21T06:24:44;27.20;46.80
38464;DHT22;24243;51.956;5.902;2022-08-21T06:27:10;27.30;46.60
38464;DHT22;24243;51.956;5.902;2022-08-21T06:29:35;27.50;46.60
38464;DHT22;24243;51.956;5.902;2022-08-21T06:32:02;27.60;46.50
38464;DHT22;24243;51.956;5.902;2022-08-21T06:34:27;27.70;46.40
38464;DHT22;24243;51.956;5.902;2022-08-21T06:36:53;27.90;46.40
38464;DHT22;24243;51.956;5.902;2022-08-21T06:39:18;28.10;46.20
38464;DHT22;24243;51.956;5.902;2022-08-21T06:41:44;28.50;45.90
38464;DHT22;24243;51.956;5.902;2022-08-21T06:44:10;28.80;45.30
38464;DHT22;24243;51.956;5.902;2022-08-21T06:46:36;29.10;45.00
38464;DHT22;24243;51.956;5.902;2022-08-21T06:49:02;29.50;44.60
38464;DHT22;24243;51.956;5.902;2022-08-21T06:51:28;29.80;44.30
38464;DHT22;24243;51.956;5.902;2022-08-21T06:53:53;30.00;44.00
38464;DHT22;24243;51.956;5.902;2022-08-21T06:56:19;30.10;43.90
38464;DHT22;24243;51.956;5.902;2022-08-21T06:58:45;30.30;43.90
38464;DHT22;24243;51.956;5.902;2022-08-21T07:01:10;30.50;43.70
38464;DHT22;24243;51.956;5.902;2022-08-21T07:03:37;30.60;43.30
38464;DHT22;24243;51.956;5.902;2022-08-21T07:06:04;30.30;43.30
38464;DHT22;24243;51.956;5.902;2022-08-21T07:08:29;29.80;43.80
38464;DHT22;24243;51.956;5.902;2022-08-21T07:10:57;29.10;44.40
38464;DHT22;24243;51.956;5.902;2022-08-21T07:13:22;28.60;45.10
38464;DHT22;24243;51.956;5.902;2022-08-21T07:15:48;28.10;45.60
38464;DHT22;24243;51.956;5.902;2022-08-21T07:18:14;27.70;46.20
38464;DHT22;24243;51.956;5.902;2022-08-21T07:20:40;27.30;46.50
38464;DHT22;24243;51.956;5.902;2022-08-21T07:23:07;27.10;46.80
38464;DHT22;24243;51.956;5.902;2022-08-21T07:25:33;26.80;47.00
38464;DHT22;24243;51.956;5.902;2022-08-21T07:27:58;26.60;47.30
38464;DHT22;24243;51.956;5.902;2022-08-21T07:30:24;26.50;47.50
38464;DHT22;24243;51.956;5.902;2022-08-21T07:32:50;26.30;47.70
38464;DHT22;24243;51.956;5.902;2022-08-21T07:35:16;26.10;47.80
38464;DHT22;24243;51.956;5.902;2022-08-21T07:37:42;26.00;48.00
38464;DHT22;24243;51.956;5.902;2022-08-21T07:40:07;25.90;48.00
38464;DHT22;24243;51.956;5.902;2022-08-21T07:42:33;25.80;48.10
38464;DHT22;24243;51.956;5.902;2022-08-21T07:44:59;25.80;48.30
38464;DHT22;24243;51.956;5.902;2022-08-21T07:47:24;25.70;48.40
38464;DHT22;24243;51.956;5.902;2022-08-21T07:49:50;25.60;48.50
38464;DHT22;24243;51.956;5.902;2022-08-21T07:52:15;25.60;48.60
38464;DHT22;24243;51.956;5.902;2022-08-21T07:54:41;25.50;48.50
38464;DHT22;24243;51.956;5.902;2022-08-21T07:57:06;25.50;48.50
38464;DHT22;24243;51.956;5.902;2022-08-21T07:59:32;25.50;48.50
38464;DHT22;24243;51.956;5.902;2022-08-21T08:01:57;25.40;48.70
38464;DHT22;24243;51.956;5.902;2022-08-21T08:04:23;25.40;48.80
38464;DHT22;24243;51.956;5.902;2022-08-21T08:06:49;25.40;49.00
38464;DHT22;24243;51.956;5.902;2022-08-21T08:09:15;25.40;49.10
38464;DHT22;24243;51.956;5.902;2022-08-21T08:11:42;25.30;49.10
38464;DHT22;24243;51.956;5.902;2022-08-21T08:14:09;25.30;49.20
38464;DHT22;24243;51.956;5.902;2022-08-21T08:16:35;25.20;49.30
38464;DHT22;24243;51.956;5.902;2022-08-21T08:19:00;25.20;49.40
38464;DHT22;24243;51.956;5.902;2022-08-21T08:21:26;25.20;49.50
38464;DHT22;24243;51.956;5.902;2022-08-21T08:23:51;25.20;49.60
38464;DHT22;24243;51.956;5.902;2022-08-21T08:26:17;25.20;49.60
38464;DHT22;24243;51.956;5.902;2022-08-21T08:28:43;25.30;49.70
38464;DHT22;24243;51.956;5.902;2022-08-21T08:31:09;25.30;49.80
38464;DHT22;24243;51.956;5.902;2022-08-21T08:33:34;25.30;49.80
38464;DHT22;24243;51.956;5.902;2022-08-21T08:36:00;25.40;49.90
38464;DHT22;24243;51.956;5.902;2022-08-21T08:38:25;25.40;49.90
38464;DHT22;24243;51.956;5.902;2022-08-21T08:40:56;25.40;49.90
38464;DHT22;24243;51.956;5.902;2022-08-21T08:43:25;25.40;50.00
38464;DHT22;24243;51.956;5.902;2022-08-21T08:45:52;25.40;49.90
38464;DHT22;24243;51.956;5.902;2022-08-21T08:48:26;25.50;50.00
38464;DHT22;24243;51.956;5.902;2022-08-21T08:50:56;25.50;50.10
38464;DHT22;24243;51.956;5.902;2022-08-21T08:53:23;25.50;50.10
38464;DHT22;24243;51.956;5.902;2022-08-21T08:55:53;25.50;50.10
38464;DHT22;24243;51.956;5.902;2022-08-21T08:58:29;25.50;50.10
38464;DHT22;24243;51.956;5.902;2022-08-21T09:00:56;25.50;50.10
38464;DHT22;24243;51.956;5.902;2022-08-21T09:03:22;25.60;50.10
38464;DHT22;24243;51.956;5.902;2022-08-21T09:06:37;25.60;50.10
38464;DHT22;24243;51.956;5.902;2022-08-21T09:08:54;25.60;50.10
38464;DHT22;24243;51.956;5.902;2022-08-21T09:14:29;25.60;50.10
38464;DHT22;24243;51.956;5.902;2022-08-21T09:27:42;25.70;50.10
38464;DHT22;24243;51.956;5.902;2022-08-21T09:30:08;25.70;50.10
38464;DHT22;24243;51.956;5.902;2022-08-21T09:32:35;25.70;50.10
38464;DHT22;24243;51.956;5.902;2022-08-21T09:37:31;25.70;50.10
38464;DHT22;24243;51.956;5.902;2022-08-21T09:39:57;25.80;50.10
38464;DHT22;24243;51.956;5.902;2022-08-21T09:42:25;25.80;50.10
38464;DHT22;24243;51.956;5.902;2022-08-21T09:45:04;25.90;50.10
38464;DHT22;24243;51.956;5.902;2022-08-21T09:47:30;25.90;50.10
38464;DHT22;24243;51.956;5.902;2022-08-21T09:49:55;25.90;50.00
38464;DHT22;24243;51.956;5.902;2022-08-21T09:52:32;25.90;50.00
38464;DHT22;24243;51.956;5.902;2022-08-21T09:54:57;26.00;50.00
38464;DHT22;24243;51.956;5.902;2022-08-21T09:57:24;26.00;50.00
38464;DHT22;24243;51.956;5.902;2022-08-21T10:00:16;26.10;50.00
38464;DHT22;24243;51.956;5.902;2022-08-21T10:02:43;26.10;50.00
38464;DHT22;24243;51.956;5.902;2022-08-21T10:05:15;26.10;49.90
38464;DHT22;24243;51.956;5.902;2022-08-21T10:07:41;26.10;49.90
38464;DHT22;24243;51.956;5.902;2022-08-21T10:10:09;26.10;49.90
38464;DHT22;24243;51.956;5.902;2022-08-21T10:15:35;26.10;49.80
38464;DHT22;24243;51.956;5.902;2022-08-21T10:25:44;26.10;49.70
38464;DHT22;24243;51.956;5.902;2022-08-21T10:31:05;26.10;49.60
38464;DHT22;24243;51.956;5.902;2022-08-21T10:34:00;26.10;49.50
38464;DHT22;24243;51.956;5.902;2022-08-21T10:36:33;26.10;49.50
38464;DHT22;24243;51.956;5.902;2022-08-21T10:41:39;26.10;49.50
38464;DHT22;24243;51.956;5.902;2022-08-21T10:47:01;26.20;49.50
38464;DHT22;24243;51.956;5.902;2022-08-21T10:54:51;26.20;49.20
38464;DHT22;24243;51.956;5.902;2022-08-21T10:57:33;26.20;49.80
38464;DHT22;24243;51.956;5.902;2022-08-21T11:00:03;26.30;49.10
38464;DHT22;24243;51.956;5.902;2022-08-21T11:02:33;26.30;49.10
38464;DHT22;24243;51.956;5.902;2022-08-21T11:07:43;26.30;49.10
38464;DHT22;24243;51.956;5.902;2022-08-21T11:12:53;26.40;49.10
38464;DHT22;24243;51.956;5.902;2022-08-21T11:20:46;26.50;49.00
38464;DHT22;24243;51.956;5.902;2022-08-21T11:23:23;26.40;48.90
38464;DHT22;24243;51.956;5.902;2022-08-21T11:25:55;26.50;48.90
38464;DHT22;24243;51.956;5.902;2022-08-21T11:28:31;26.50;48.80
38464;DHT22;24243;51.956;5.902;2022-08-21T11:33:32;26.50;48.70
38464;DHT22;24243;51.956;5.902;2022-08-21T11:49:11;26.60;48.40
38464;DHT22;24243;51.956;5.902;2022-08-21T11:51:46;26.60;48.40
38464;DHT22;24243;51.956;5.902;2022-08-21T11:54:33;26.60;48.40
38464;DHT22;24243;51.956;5.902;2022-08-21T11:57:14;26.70;48.40
38464;DHT22;24243;51.956;5.902;2022-08-21T12:02:12;26.60;48.40
38464;DHT22;24243;51.956;5.902;2022-08-21T12:04:44;26.70;48.50
38464;DHT22;24243;51.956;5.902;2022-08-21T12:07:11;26.60;48.40
38464;DHT22;24243;51.956;5.902;2022-08-21T12:09:38;26.70;48.50
38464;DHT22;24243;51.956;5.902;2022-08-21T12:12:46;26.70;48.50
38464;DHT22;24243;51.956;5.902;2022-08-21T12:15:04;26.70;48.40
38464;DHT22;24243;51.956;5.902;2022-08-21T12:17:37;26.70;48.40
38464;DHT22;24243;51.956;5.902;2022-08-21T12:22:47;26.80;48.40
38464;DHT22;24243;51.956;5.902;2022-08-21T12:25:16;26.80;48.40
38464;DHT22;24243;51.956;5.902;2022-08-21T12:27:53;26.80;48.40
38464;DHT22;24243;51.956;5.902;2022-08-21T12:30:41;26.80;49.00
38464;DHT22;24243;51.956;5.902;2022-08-21T12:33:09;26.80;48.30
38464;DHT22;24243;51.956;5.902;2022-08-21T12:35:43;26.80;48.30
38464;DHT22;24243;51.956;5.902;2022-08-21T12:38:18;26.80;48.30
38464;DHT22;24243;51.956;5.902;2022-08-21T12:40:55;26.80;48.20
38464;DHT22;24243;51.956;5.902;2022-08-21T12:43:33;26.80;48.20
38464;DHT22;24243;51.956;5.902;2022-08-21T12:46:00;26.80;48.10
38464;DHT22;24243;51.956;5.902;2022-08-21T12:48:29;26.80;48.10
38464;DHT22;24243;51.956;5.902;2022-08-21T12:50:58;26.80;47.90
38464;DHT22;24243;51.956;5.902;2022-08-21T12:55:56;26.80;47.70
38464;DHT22;24243;51.956;5.902;2022-08-21T12:58:26;26.80;47.60
38464;DHT22;24243;51.956;5.902;2022-08-21T13:00:53;26.80;47.40
38464;DHT22;24243;51.956;5.902;2022-08-21T13:03:19;26.80;47.30
38464;DHT22;24243;51.956;5.902;2022-08-21T13:05:45;26.80;47.20
38464;DHT22;24243;51.956;5.902;2022-08-21T13:08:11;26.80;47.10
38464;DHT22;24243;51.956;5.902;2022-08-21T13:10:38;26.80;47.10
38464;DHT22;24243;51.956;5.902;2022-08-21T13:13:05;26.80;47.00
38464;DHT22;24243;51.956;5.902;2022-08-21T13:15:33;26.80;47.60
38464;DHT22;24243;51.956;5.902;2022-08-21T13:17:59;26.80;46.80
38464;DHT22;24243;51.956;5.902;2022-08-21T13:20:31;26.90;46.70
38464;DHT22;24243;51.956;5.902;2022-08-21T13:22:59;26.90;46.70
38464;DHT22;24243;51.956;5.902;2022-08-21T13:25:26;26.90;46.60
38464;DHT22;24243;51.956;5.902;2022-08-21T13:27:59;26.90;46.50
38464;DHT22;24243;51.956;5.902;2022-08-21T13:30:25;26.90;46.50
38464;DHT22;24243;51.956;5.902;2022-08-21T13:32:54;26.90;46.40
38464;DHT22;24243;51.956;5.902;2022-08-21T13:35:22;26.90;46.30
38464;DHT22;24243;51.956;5.902;2022-08-21T13:37:49;27.00;46.20
38464;DHT22;24243;51.956;5.902;2022-08-21T13:40:19;27.00;46.10
38464;DHT22;24243;51.956;5.902;2022-08-21T13:42:45;27.00;46.10
38464;DHT22;24243;51.956;5.902;2022-08-21T13:45:16;27.00;46.00
38464;DHT22;24243;51.956;5.902;2022-08-21T13:47:42;27.00;45.90
38464;DHT22;24243;51.956;5.902;2022-08-21T13:50:08;27.00;45.90
38464;DHT22;24243;51.956;5.902;2022-08-21T13:52:44;27.00;45.90
38464;DHT22;24243;51.956;5.902;2022-08-21T13:55:12;27.00;45.90
38464;DHT22;24243;51.956;5.902;2022-08-21T13:57:38;27.00;45.80
38464;DHT22;24243;51.956;5.902;2022-08-21T14:00:25;27.00;45.80
38464;DHT22;24243;51.956;5.902;2022-08-21T14:02:50;27.00;45.70
38464;DHT22;24243;51.956;5.902;2022-08-21T14:05:27;27.00;46.10
38464;DHT22;24243;51.956;5.902;2022-08-21T14:07:58;27.10;45.50
38464;DHT22;24243;51.956;5.902;2022-08-21T14:10:26;27.00;45.40
38464;DHT22;24243;51.956;5.902;2022-08-21T14:12:58;27.10;45.50
38464;DHT22;24243;51.956;5.902;2022-08-21T14:15:26;27.10;45.50
38464;DHT22;24243;51.956;5.902;2022-08-21T14:17:54;27.10;45.50
38464;DHT22;24243;51.956;5.902;2022-08-21T14:20:33;27.10;45.50
38464;DHT22;24243;51.956;5.902;2022-08-21T14:22:59;27.10;45.60
38464;DHT22;24243;51.956;5.902;2022-08-21T14:27:52;27.10;45.70
38464;DHT22;24243;51.956;5.902;2022-08-21T14:32:53;27.10;45.50
38464;DHT22;24243;51.956;5.902;2022-08-21T14:35:18;27.10;45.40
38464;DHT22;24243;51.956;5.902;2022-08-21T14:37:46;27.10;45.40
38464;DHT22;24243;51.956;5.902;2022-08-21T14:40:12;27.10;45.40
38464;DHT22;24243;51.956;5.902;2022-08-21T14:42:40;27.10;45.30
38464;DHT22;24243;51.956;5.902;2022-08-21T14:45:28;27.00;45.20
38464;DHT22;24243;51.956;5.902;2022-08-21T14:47:52;27.10;45.30
38464;DHT22;24243;51.956;5.902;2022-08-21T14:50:18;27.00;45.20
38464;DHT22;24243;51.956;5.902;2022-08-21T14:52:43;27.10;45.30
38464;DHT22;24243;51.956;5.902;2022-08-21T14:55:11;27.00;45.20
38464;DHT22;24243;51.956;5.902;2022-08-21T14:57:39;27.00;45.20
38464;DHT22;24243;51.956;5.902;2022-08-21T15:00:06;27.00;45.20
38464;DHT22;24243;51.956;5.902;2022-08-21T15:02:33;27.00;45.20
38464;DHT22;24243;51.956;5.902;2022-08-21T15:04:58;27.00;45.20
38464;DHT22;24243;51.956;5.902;2022-08-21T15:07:24;27.00;45.10
38464;DHT22;24243;51.956;5.902;2022-08-21T15:09:50;27.00;45.20
38464;DHT22;24243;51.956;5.902;2022-08-21T15:12:15;27.00;45.10
38464;DHT22;24243;51.956;5.902;2022-08-21T15:14:41;27.00;45.10
38464;DHT22;24243;51.956;5.902;2022-08-21T15:17:08;26.90;45.10
38464;DHT22;24243;51.956;5.902;2022-08-21T15:19:34;27.00;45.10
38464;DHT22;24243;51.956;5.902;2022-08-21T15:22:00;27.00;45.00
38464;DHT22;24243;51.956;5.902;2022-08-21T15:24:26;27.00;44.90
38464;DHT22;24243;51.956;5.902;2022-08-21T15:26:52;27.00;44.80
38464;DHT22;24243;51.956;5.902;2022-08-21T15:29:18;27.00;44.80
38464;DHT22;24243;51.956;5.902;2022-08-21T15:31:51;26.90;44.60
38464;DHT22;24243;51.956;5.902;2022-08-21T15:34:17;26.90;44.60
38464;DHT22;24243;51.956;5.902;2022-08-21T15:36:43;26.90;44.50
38464;DHT22;24243;51.956;5.902;2022-08-21T15:39:08;26.90;44.50
38464;DHT22;24243;51.956;5.902;2022-08-21T15:41:34;26.80;44.50
38464;DHT22;24243;51.956;5.902;2022-08-21T15:43:59;26.80;44.50
38464;DHT22;24243;51.956;5.902;2022-08-21T15:46:25;26.80;44.50
38464;DHT22;24243;51.956;5.902;2022-08-21T15:48:51;26.80;44.50
38464;DHT22;24243;51.956;5.902;2022-08-21T15:51:16;26.80;44.50
38464;DHT22;24243;51.956;5.902;2022-08-21T15:53:42;26.80;44.40
38464;DHT22;24243;51.956;5.902;2022-08-21T15:56:14;26.80;44.40
38464;DHT22;24243;51.956;5.902;2022-08-21T15:58:41;26.80;44.40
38464;DHT22;24243;51.956;5.902;2022-08-21T16:01:06;26.80;44.40
38464;DHT22;24243;51.956;5.902;2022-08-21T16:03:32;26.80;44.40
38464;DHT22;24243;51.956;5.902;2022-08-21T16:05:58;26.80;44.40
38464;DHT22;24243;51.956;5.902;2022-08-21T16:08:24;26.70;44.40
38464;DHT22;24243;51.956;5.902;2022-08-21T16:10:50;26.70;44.40
38464;DHT22;24243;51.956;5.902;2022-08-21T16:13:22;26.70;44.40
38464;DHT22;24243;51.956;5.902;2022-08-21T16:15:49;26.70;44.40
38464;DHT22;24243;51.956;5.902;2022-08-21T16:18:14;26.70;44.40
38464;DHT22;24243;51.956;5.902;2022-08-21T16:20:40;26.60;44.30
38464;DHT22;24243;51.956;5.902;2022-08-21T16:23:06;26.60;44.40
38464;DHT22;24243;51.956;5.902;2022-08-21T16:25:34;26.60;44.40
38464;DHT22;24243;51.956;5.902;2022-08-21T16:28:00;26.60;44.40
38464;DHT22;24243;51.956;5.902;2022-08-21T16:30:26;26.60;44.40
38464;DHT22;24243;51.956;5.902;2022-08-21T16:32:52;26.60;44.50
38464;DHT22;24243;51.956;5.902;2022-08-21T16:35:19;26.60;44.50
38464;DHT22;24243;51.956;5.902;2022-08-21T16:37:45;26.50;44.40
38464;DHT22;24243;51.956;5.902;2022-08-21T16:40:11;26.50;44.30
38464;DHT22;24243;51.956;5.902;2022-08-21T16:42:37;26.50;44.30
38464;DHT22;24243;51.956;5.902;2022-08-21T16:45:11;26.50;44.40
38464;DHT22;24243;51.956;5.902;2022-08-21T16:47:37;26.40;44.30
38464;DHT22;24243;51.956;5.902;2022-08-21T16:50:03;26.40;44.30
38464;DHT22;24243;51.956;5.902;2022-08-21T16:52:30;26.40;44.40
38464;DHT22;24243;51.956;5.902;2022-08-21T16:54:56;26.40;44.40
38464;DHT22;24243;51.956;5.902;2022-08-21T16:57:23;26.40;44.40